createdAt,value
2022-10-13T00:01:48.515Z,7.37
2022-10-13T00:04:14.998Z,6.07
2022-10-13T00:06:41.518Z,7.73
2022-10-13T00:09:08.065Z,10.27
2022-10-13T00:11:34.578Z,7.10
2022-10-13T00:14:04.097Z,7.00
2022-10-13T00:16:32.311Z,5.20
2022-10-13T00:18:59.551Z,5.33
2022-10-13T00:21:27.497Z,4.63
2022-10-13T00:23:54.870Z,7.57
2022-10-13T00:26:24.573Z,8.10
2022-10-13T00:28:53.075Z,5.87
2022-10-13T00:31:21.236Z,6.57
2022-10-13T00:33:49.340Z,4.70
2022-10-13T00:36:16.209Z,7.13
2022-10-13T00:38:43.866Z,5.97
2022-10-13T00:41:10.411Z,7.27
2022-10-13T00:44:04.097Z,6.70
2022-10-13T00:46:33.014Z,8.03
2022-10-13T00:49:09.194Z,5.60
2022-10-13T00:51:41.451Z,5.60
2022-10-13T00:54:11.361Z,6.07
2022-10-13T00:56:38.986Z,5.60
2022-10-13T00:59:13.018Z,8.70
2022-10-13T01:01:39.939Z,7.77
2022-10-13T01:04:06.660Z,9.17
2022-10-13T01:06:33.236Z,6.67
2022-10-13T01:08:59.958Z,5.53
2022-10-13T01:11:47.668Z,5.13
2022-10-13T01:14:38.418Z,9.57
2022-10-13T01:17:30.751Z,6.77
2022-10-13T01:20:32.625Z,6.93
2022-10-13T01:23:12.499Z,8.10
2022-10-13T01:25:45.074Z,8.80
2022-10-13T01:28:39.363Z,7.93
2022-10-13T01:31:32.375Z,10.63
2022-10-13T01:34:10.424Z,7.97
2022-10-13T01:36:55.053Z,8.20
2022-10-13T01:39:31.853Z,7.13
2022-10-13T01:42:11.484Z,6.87
2022-10-13T01:45:03.956Z,7.17
2022-10-13T01:47:33.623Z,11.57
2022-10-13T01:50:00.972Z,8.73
2022-10-13T01:52:33.382Z,6.17
2022-10-13T01:55:08.747Z,8.40
2022-10-13T01:57:38.997Z,9.30
2022-10-13T02:00:09.515Z,11.00
2022-10-13T02:02:54.236Z,11.47
2022-10-13T02:05:40.073Z,8.27
2022-10-13T02:08:15.926Z,11.87
2022-10-13T02:11:16.643Z,10.23
2022-10-13T02:14:03.382Z,7.50
2022-10-13T02:16:35.492Z,9.33
2022-10-13T02:19:05.541Z,10.07
2022-10-13T02:21:33.057Z,10.00
2022-10-13T02:23:59.658Z,9.07
2022-10-13T02:26:26.351Z,8.93
2022-10-13T02:28:53.355Z,12.33
2022-10-13T02:31:19.867Z,11.33
2022-10-13T02:33:46.381Z,8.37
2022-10-13T02:36:12.918Z,8.37
2022-10-13T02:38:39.441Z,8.97
2022-10-13T02:41:06.099Z,9.23
2022-10-13T02:43:33.977Z,11.77
2022-10-13T02:46:00.587Z,10.33
2022-10-13T02:48:27.107Z,12.30
2022-10-13T02:50:53.609Z,10.23
2022-10-13T02:53:20.192Z,12.13
2022-10-13T02:55:46.688Z,11.70
2022-10-13T02:58:13.213Z,9.83
2022-10-13T03:00:39.774Z,15.30
2022-10-13T03:03:06.502Z,10.70
2022-10-13T03:05:33.224Z,11.83
2022-10-13T03:07:59.777Z,9.40
2022-10-13T03:10:27.023Z,11.50
2022-10-13T03:12:55.197Z,8.97
2022-10-13T03:15:21.735Z,9.70
2022-10-13T03:17:48.417Z,8.20
2022-10-13T03:20:15.302Z,11.93
2022-10-13T03:22:43.958Z,10.90
2022-10-13T03:25:14.407Z,10.20
2022-10-13T03:27:40.925Z,13.33
2022-10-13T03:30:08.332Z,11.67
2022-10-13T03:32:34.861Z,12.53
2022-10-13T03:35:01.343Z,10.40
2022-10-13T03:37:30.275Z,12.13
2022-10-13T03:39:56.958Z,10.47
2022-10-13T03:42:23.646Z,11.43
2022-10-13T03:44:55.260Z,14.53
2022-10-13T03:47:22.917Z,10.50
2022-10-13T03:49:49.475Z,11.10
2022-10-13T03:52:16.004Z,11.10
2022-10-13T03:54:42.512Z,14.43
2022-10-13T03:57:09.011Z,9.97
2022-10-13T03:59:36.937Z,14.20
2022-10-13T04:02:04.081Z,12.30
2022-10-13T04:04:30.681Z,10.90
2022-10-13T04:06:57.170Z,12.00
2022-10-13T04:09:23.747Z,13.80
2022-10-13T04:11:51.653Z,11.47
2022-10-13T04:14:19.602Z,18.93
2022-10-13T04:16:47.114Z,12.53
2022-10-13T04:19:15.285Z,14.00
2022-10-13T04:21:43.827Z,12.80
2022-10-13T04:24:12.480Z,10.30
2022-10-13T04:26:39.807Z,11.13
2022-10-13T04:29:08.322Z,13.83
2022-10-13T04:31:35.206Z,14.87
2022-10-13T04:34:01.867Z,12.50
2022-10-13T04:36:28.363Z,12.33
2022-10-13T04:38:55.683Z,16.03
2022-10-13T04:41:23.056Z,15.33
2022-10-13T04:43:52.045Z,23.37
2022-10-13T04:46:21.047Z,14.50
2022-10-13T04:48:48.224Z,15.77
2022-10-13T04:51:18.183Z,14.87
2022-10-13T04:53:44.821Z,12.90
2022-10-13T04:56:17.093Z,15.90
2022-10-13T04:58:45.645Z,15.67
2022-10-13T05:01:21.772Z,18.17
2022-10-13T05:03:52.162Z,16.93
2022-10-13T05:06:28.510Z,20.47
2022-10-13T05:08:55.968Z,17.27
2022-10-13T05:11:24.245Z,15.33
2022-10-13T05:13:51.096Z,17.60
2022-10-13T05:16:19.423Z,18.57
2022-10-13T05:18:46.242Z,16.60
2022-10-13T05:21:24.446Z,14.33
2022-10-13T05:23:54.375Z,15.97
2022-10-13T05:26:21.892Z,17.00
2022-10-13T05:28:48.611Z,16.03
2022-10-13T05:31:16.546Z,18.90
2022-10-13T05:33:43.910Z,17.83
2022-10-13T05:36:13.282Z,15.47
2022-10-13T05:38:39.802Z,17.10
2022-10-13T05:41:11.262Z,18.07
2022-10-13T05:43:39.345Z,15.27
2022-10-13T05:46:06.230Z,15.60
2022-10-13T05:48:32.780Z,16.80
2022-10-13T05:51:01.638Z,15.37
2022-10-13T05:53:33.603Z,16.23
2022-10-13T05:56:06.284Z,16.33
2022-10-13T05:58:36.701Z,16.87
2022-10-13T06:01:07.090Z,18.77
2022-10-13T06:03:34.579Z,15.20
2022-10-13T06:06:01.152Z,16.57
2022-10-13T06:08:29.381Z,18.53
2022-10-13T06:10:55.988Z,17.33
2022-10-13T06:13:22.493Z,18.23
2022-10-13T06:15:48.977Z,14.73
2022-10-13T06:18:15.503Z,16.23
2022-10-13T06:20:43.016Z,16.40
2022-10-13T06:23:09.731Z,17.67
2022-10-13T06:25:36.382Z,14.47
2022-10-13T06:28:02.933Z,16.00
2022-10-13T06:30:29.540Z,20.70
2022-10-13T06:32:56.431Z,16.80
2022-10-13T06:35:23.722Z,20.57
2022-10-13T06:37:50.390Z,19.13
2022-10-13T06:40:17.172Z,16.63
2022-10-13T06:42:49.721Z,16.43
2022-10-13T06:45:16.289Z,19.33
2022-10-13T06:47:42.811Z,19.63
2022-10-13T06:50:09.725Z,16.67
2022-10-13T06:52:36.267Z,19.30
2022-10-13T06:55:02.996Z,20.13
2022-10-13T06:57:29.531Z,20.13
2022-10-13T06:59:56.176Z,21.10
2022-10-13T07:02:23.362Z,21.40
2022-10-13T07:04:49.949Z,20.30
2022-10-13T07:07:16.512Z,19.97
2022-10-13T07:09:43.035Z,19.20
2022-10-13T07:12:09.586Z,18.70
2022-10-13T07:14:38.184Z,20.30
2022-10-13T07:17:07.405Z,19.13
2022-10-13T07:19:34.100Z,22.47
2022-10-13T07:22:00.669Z,21.00
2022-10-13T07:24:27.312Z,22.50
2022-10-13T07:26:53.828Z,25.97
2022-10-13T07:29:20.361Z,20.30
2022-10-13T07:31:47.104Z,14.97
2022-10-13T07:34:15.481Z,19.63
2022-10-13T07:36:42.165Z,19.03
2022-10-13T07:39:09.362Z,22.73
2022-10-13T07:41:36.659Z,27.63
2022-10-13T07:44:03.255Z,23.23
2022-10-13T07:46:29.855Z,21.93
2022-10-13T07:48:56.606Z,20.40
2022-10-13T07:51:23.455Z,21.13
2022-10-13T07:53:51.090Z,20.60
2022-10-13T07:56:17.772Z,17.63
2022-10-13T07:58:46.693Z,20.40
2022-10-13T08:01:14.670Z,20.87
2022-10-13T08:03:44.250Z,19.30
2022-10-13T08:06:14.350Z,21.47
2022-10-13T08:08:40.936Z,21.63
2022-10-13T08:11:16.680Z,23.10
2022-10-13T08:13:48.236Z,24.87
2022-10-13T08:16:14.791Z,21.67
2022-10-13T08:18:41.290Z,22.77
2022-10-13T08:21:53.211Z,25.00
2022-10-13T08:23:59.839Z,26.97
2022-10-13T08:26:28.524Z,20.37
2022-10-13T08:29:16.578Z,24.57
2022-10-13T08:31:42.980Z,22.30
2022-10-13T08:34:10.822Z,26.93
2022-10-13T08:36:38.280Z,22.07
2022-10-13T08:39:05.562Z,23.83
2022-10-13T08:41:37.296Z,21.77
2022-10-13T08:44:59.200Z,22.50
2022-10-13T08:47:10.575Z,25.03
2022-10-13T08:49:37.313Z,25.13
2022-10-13T08:52:06.890Z,21.30
2022-10-13T08:54:33.463Z,26.03
2022-10-13T08:59:27.650Z,23.33
2022-10-13T09:01:55.586Z,27.10
2022-10-13T09:04:39.321Z,23.93
2022-10-13T09:07:10.716Z,24.80
2022-10-13T09:09:38.182Z,25.57
2022-10-13T09:12:05.571Z,26.57
2022-10-13T09:14:37.775Z,24.97
2022-10-13T09:19:56.851Z,22.40
2022-10-13T09:22:28.624Z,23.27
2022-10-13T09:25:07.275Z,23.57
2022-10-13T09:27:58.127Z,27.10
2022-10-13T09:30:32.812Z,24.13
2022-10-13T09:33:09.282Z,27.87
2022-10-13T09:35:38.764Z,23.20
2022-10-13T09:38:07.101Z,27.40
2022-10-13T09:40:34.137Z,25.27
2022-10-13T09:43:02.842Z,24.10
2022-10-13T09:45:32.411Z,23.87
2022-10-13T09:48:04.837Z,28.00
2022-10-13T09:50:35.296Z,21.77
2022-10-13T09:53:24.569Z,22.17
2022-10-13T09:56:26.851Z,22.10
2022-10-13T09:59:05.962Z,23.97
2022-10-13T10:01:40.686Z,25.67
2022-10-13T10:04:12.913Z,25.33
2022-10-13T10:06:40.522Z,24.87
2022-10-13T10:09:35.532Z,25.07
2022-10-13T10:12:04.882Z,20.60
2022-10-13T10:14:34.303Z,23.03
2022-10-13T10:17:06.927Z,26.33
2022-10-13T10:19:48.857Z,19.90
2022-10-13T10:22:30.667Z,26.80
2022-10-13T10:25:15.270Z,21.53
2022-10-13T10:27:50.034Z,21.80
2022-10-13T10:30:19.485Z,20.50
2022-10-13T10:32:53.593Z,22.40
2022-10-13T10:35:44.419Z,22.10
2022-10-13T10:38:13.718Z,23.30
2022-10-13T10:41:10.000Z,20.10
2022-10-13T10:43:43.027Z,19.90
2022-10-13T10:46:20.594Z,19.30
2022-10-13T10:48:50.404Z,25.40
2022-10-13T10:51:18.461Z,20.77
2022-10-13T10:53:53.826Z,18.50
2022-10-13T10:56:39.230Z,22.17
2022-10-13T10:59:36.804Z,22.23
2022-10-13T11:02:06.247Z,17.50
2022-10-13T11:04:44.333Z,21.17
2022-10-13T11:07:24.439Z,20.03
2022-10-13T11:09:54.161Z,17.70
2022-10-13T11:12:21.177Z,20.30
2022-10-13T11:14:54.700Z,18.07
2022-10-13T11:17:28.362Z,20.97
2022-10-13T11:19:55.408Z,17.37
2022-10-13T11:22:24.627Z,23.53
2022-10-13T11:24:59.753Z,19.93
2022-10-13T11:27:35.173Z,17.63
2022-10-13T11:30:02.956Z,17.33
2022-10-13T11:32:32.931Z,19.73
2022-10-13T11:35:05.527Z,22.60
2022-10-13T11:38:06.901Z,17.73
2022-10-13T11:41:11.104Z,22.10
2022-10-13T11:43:52.350Z,17.17
2022-10-13T11:46:34.902Z,15.73
2022-10-13T11:49:39.871Z,20.53
2022-10-13T11:52:31.933Z,20.17
2022-10-13T11:55:20.035Z,17.23
2022-10-13T11:57:46.587Z,18.37
2022-10-13T12:00:18.909Z,16.00
2022-10-13T12:02:53.440Z,21.50
2022-10-13T12:05:22.903Z,15.93
2022-10-13T12:07:52.959Z,18.30
2022-10-13T12:10:34.771Z,19.37
2022-10-13T12:13:02.487Z,18.03
2022-10-13T12:15:35.877Z,19.77
2022-10-13T12:18:19.529Z,21.40
2022-10-13T12:20:55.872Z,20.10
2022-10-13T12:23:22.814Z,19.23
2022-10-13T12:25:56.618Z,21.03
2022-10-13T12:28:25.964Z,22.13
2022-10-13T12:30:56.535Z,21.17
2022-10-13T12:33:33.635Z,19.03
2022-10-13T12:36:13.802Z,17.33
2022-10-13T12:38:45.981Z,17.97
2022-10-13T12:41:15.572Z,20.70
2022-10-13T12:43:43.369Z,20.80
2022-10-13T12:46:09.960Z,20.67
2022-10-13T12:48:38.253Z,22.17
2022-10-13T12:51:21.477Z,26.30
2022-10-13T12:53:48.427Z,24.33
2022-10-13T12:56:42.480Z,23.17
2022-10-13T12:59:17.156Z,21.07
2022-10-13T13:01:45.038Z,19.83
2022-10-13T13:04:20.853Z,28.43
2022-10-13T13:06:53.344Z,21.13
2022-10-13T13:09:42.166Z,24.70
2022-10-13T13:12:08.622Z,25.47
2022-10-13T13:14:39.792Z,22.47
2022-10-13T13:17:06.278Z,21.60
2022-10-13T13:19:34.465Z,25.10
2022-10-13T13:22:01.083Z,25.33
2022-10-13T13:24:39.252Z,21.53
2022-10-13T13:27:20.988Z,19.77
2022-10-13T13:29:48.195Z,23.87
2022-10-13T13:32:19.010Z,26.33
2022-10-13T13:34:46.955Z,26.00
2022-10-13T13:37:26.663Z,23.30
2022-10-13T13:39:53.261Z,24.47
2022-10-13T13:42:19.843Z,20.73
2022-10-13T13:44:46.390Z,21.70
2022-10-13T13:47:22.357Z,20.17
2022-10-13T13:49:51.168Z,20.33
2022-10-13T13:52:18.422Z,21.23
2022-10-13T13:54:45.158Z,21.83
2022-10-13T13:57:13.499Z,20.10
2022-10-13T13:59:40.972Z,18.33
2022-10-13T14:02:13.430Z,22.50
2022-10-13T14:04:40.405Z,20.63
2022-10-13T14:07:06.917Z,23.67
2022-10-13T14:09:33.458Z,23.07
2022-10-13T14:12:00.047Z,22.50
2022-10-13T14:14:26.568Z,20.70
2022-10-13T14:16:53.057Z,21.57
2022-10-13T14:19:19.834Z,22.87
2022-10-13T14:21:46.359Z,24.90
2022-10-13T14:24:12.971Z,22.33
2022-10-13T14:26:39.518Z,22.03
2022-10-13T14:29:06.046Z,18.53
2022-10-13T14:31:33.176Z,17.90
2022-10-13T14:33:59.763Z,20.13
2022-10-13T14:36:26.374Z,17.87
2022-10-13T14:38:54.209Z,22.27
2022-10-13T14:41:21.131Z,18.17
2022-10-13T14:43:47.662Z,19.93
2022-10-13T14:46:14.188Z,17.53
2022-10-13T14:48:40.672Z,21.60
2022-10-13T14:51:09.344Z,16.40
2022-10-13T14:53:37.943Z,19.20
2022-10-13T14:56:17.546Z,19.37
2022-10-13T14:58:44.390Z,16.57
2022-10-13T15:01:10.955Z,15.77
2022-10-13T15:03:37.511Z,16.07
2022-10-13T15:06:04.245Z,16.23
2022-10-13T15:08:30.739Z,19.17
2022-10-13T15:11:01.464Z,20.40
2022-10-13T15:13:28.586Z,18.27
2022-10-13T15:15:55.427Z,17.03
2022-10-13T15:18:25.797Z,17.77
2022-10-13T15:20:54.969Z,20.93
2022-10-13T15:23:21.599Z,18.63
2022-10-13T15:25:56.835Z,19.50
2022-10-13T15:28:25.365Z,22.47
2022-10-13T15:30:52.155Z,22.70
2022-10-13T15:33:19.499Z,24.70
2022-10-13T15:35:50.266Z,22.50
2022-10-13T15:38:17.973Z,23.13
2022-10-13T15:40:44.740Z,23.03
2022-10-13T15:43:12.307Z,17.57
2022-10-13T15:45:39.010Z,19.17
2022-10-13T15:48:06.903Z,17.07
2022-10-13T15:50:34.320Z,17.00
2022-10-13T15:53:00.958Z,16.17
2022-10-13T15:55:28.979Z,16.77
2022-10-13T15:57:55.610Z,13.67
2022-10-13T16:00:22.160Z,14.73
2022-10-13T16:02:51.152Z,14.10
2022-10-13T16:05:18.427Z,14.30
2022-10-13T16:07:45.024Z,14.33
2022-10-13T16:10:13.432Z,14.10
2022-10-13T16:12:40.243Z,12.57
2022-10-13T16:15:08.133Z,15.20
2022-10-13T16:17:36.242Z,14.77
2022-10-13T16:20:04.192Z,18.47
2022-10-13T16:22:30.712Z,15.27
2022-10-13T16:24:57.370Z,15.73
2022-10-13T16:27:24.525Z,14.07
2022-10-13T16:29:51.221Z,14.60
2022-10-13T16:32:18.291Z,16.20
2022-10-13T16:34:47.977Z,18.87
2022-10-13T16:37:14.460Z,23.23
2022-10-13T16:39:43.779Z,20.67
2022-10-13T16:42:12.005Z,24.13
2022-10-13T16:44:38.582Z,22.80
2022-10-13T16:47:06.456Z,21.07
2022-10-13T16:49:33.867Z,20.03
2022-10-13T16:52:00.832Z,17.33
2022-10-13T16:54:27.516Z,17.83
2022-10-13T16:56:54.036Z,20.57
2022-10-13T16:59:20.601Z,22.83
2022-10-13T17:01:48.281Z,21.50
2022-10-13T17:04:17.296Z,20.77
2022-10-13T17:06:47.913Z,20.03
2022-10-13T17:09:14.463Z,20.70
2022-10-13T17:11:41.007Z,19.30
2022-10-13T17:14:08.186Z,26.53
2022-10-13T17:16:35.958Z,17.93
2022-10-13T17:19:03.367Z,19.57
2022-10-13T17:21:29.889Z,18.27
2022-10-13T17:23:57.467Z,20.10
2022-10-13T17:26:24.090Z,19.60
2022-10-13T17:28:51.161Z,18.97
2022-10-13T17:31:23.287Z,20.33
2022-10-13T17:33:50.821Z,17.77
2022-10-13T17:36:20.214Z,19.53
2022-10-13T17:38:47.972Z,16.10
2022-10-13T17:41:14.997Z,19.27
2022-10-13T17:43:42.232Z,18.80
2022-10-13T17:46:34.977Z,18.97
2022-10-13T17:49:00.816Z,18.27
2022-10-13T17:51:27.934Z,17.97
2022-10-13T17:53:54.783Z,16.90
2022-10-13T17:56:24.031Z,17.83
2022-10-13T17:58:51.274Z,17.03
2022-10-13T18:01:29.664Z,21.97
2022-10-13T18:03:59.668Z,17.80
2022-10-13T18:06:36.794Z,17.83
2022-10-13T18:09:06.874Z,17.77
2022-10-13T18:11:33.921Z,18.00
2022-10-13T18:14:00.799Z,19.07
2022-10-13T18:16:27.327Z,18.60
2022-10-13T18:18:54.360Z,19.23
2022-10-13T18:21:24.099Z,17.53
2022-10-13T18:23:50.727Z,17.17
2022-10-13T18:26:19.386Z,17.27
2022-10-13T18:28:47.837Z,17.00
2022-10-13T18:31:17.139Z,21.13
2022-10-13T18:33:44.627Z,20.47
2022-10-13T18:36:24.245Z,19.80
2022-10-13T18:38:52.914Z,22.93
2022-10-13T18:41:22.552Z,18.27
2022-10-13T18:43:49.879Z,18.33
2022-10-13T18:46:17.165Z,19.00
2022-10-13T18:48:44.229Z,18.30
2022-10-13T18:51:16.631Z,16.93
2022-10-13T18:53:46.775Z,16.20
2022-10-13T18:56:19.484Z,18.77
2022-10-13T18:58:46.983Z,18.17
2022-10-13T19:01:17.193Z,17.77
2022-10-13T19:03:44.596Z,18.63
2022-10-13T19:06:13.713Z,21.60
2022-10-13T19:08:41.627Z,24.47
2022-10-13T19:11:17.527Z,23.87
2022-10-13T19:13:45.078Z,20.33
2022-10-13T19:16:14.261Z,20.10
2022-10-13T19:18:41.961Z,20.57
2022-10-13T19:21:09.935Z,20.47
2022-10-13T19:23:37.124Z,21.80
2022-10-13T19:26:17.962Z,20.37
2022-10-13T19:28:46.626Z,19.97
2022-10-13T19:31:21.135Z,21.23
2022-10-13T19:33:50.834Z,21.47
2022-10-13T19:36:33.888Z,21.47
2022-10-13T19:39:06.157Z,23.30
2022-10-13T19:41:34.449Z,21.17
2022-10-13T19:44:01.630Z,21.03
2022-10-13T19:46:28.742Z,20.87
2022-10-13T19:48:56.081Z,23.20
2022-10-13T19:51:23.226Z,22.30
2022-10-13T19:53:50.215Z,22.00
2022-10-13T19:56:26.772Z,26.67
2022-10-13T19:58:55.141Z,26.00
2022-10-13T20:01:24.185Z,26.97
2022-10-13T20:03:52.902Z,23.57
2022-10-13T20:06:21.126Z,27.70
2022-10-13T20:08:49.101Z,27.17
2022-10-13T20:11:23.722Z,30.33
2022-10-13T20:13:53.049Z,24.30
2022-10-13T20:16:24.275Z,29.17
2022-10-13T20:18:53.104Z,27.53
2022-10-13T20:21:19.639Z,26.53
2022-10-13T20:23:46.150Z,25.37
2022-10-13T20:26:13.360Z,25.50
2022-10-13T20:28:43.090Z,30.20
2022-10-13T20:31:11.535Z,26.53
2022-10-13T20:33:38.455Z,24.30
2022-10-13T20:36:07.993Z,25.40
2022-10-13T20:38:36.062Z,26.50
2022-10-13T20:41:16.936Z,25.37
2022-10-13T20:43:44.437Z,24.27
2022-10-13T20:46:11.587Z,24.90
2022-10-13T20:49:08.727Z,24.67
2022-10-13T20:51:27.379Z,23.83
2022-10-13T20:53:54.215Z,25.80
2022-10-13T20:56:23.671Z,25.50
2022-10-13T20:58:51.396Z,26.80
2022-10-13T21:01:19.677Z,26.27
2022-10-13T21:03:49.846Z,27.13
2022-10-13T21:06:16.376Z,25.90
2022-10-13T21:08:45.279Z,27.57
2022-10-13T21:11:14.592Z,27.33
2022-10-13T21:13:43.013Z,26.60
2022-10-13T21:16:14.462Z,26.43
2022-10-13T21:18:50.233Z,27.83
2022-10-13T21:21:20.212Z,26.17
2022-10-13T21:23:51.505Z,27.93
2022-10-13T21:26:21.686Z,26.93
2022-10-13T21:28:49.911Z,28.03
2022-10-13T21:31:17.766Z,26.30
2022-10-13T21:33:44.749Z,28.17
2022-10-13T21:36:13.219Z,27.27
2022-10-13T21:38:40.743Z,29.23
2022-10-13T21:41:09.099Z,27.33
2022-10-13T21:43:35.971Z,28.37
2022-10-13T21:46:09.954Z,26.80
2022-10-13T21:48:37.122Z,25.80
2022-10-13T21:51:18.059Z,30.83
2022-10-13T21:53:49.031Z,26.33
2022-10-13T21:56:16.163Z,29.80
2022-10-13T21:58:42.648Z,31.00
2022-10-13T22:01:09.450Z,28.73
2022-10-13T22:03:36.018Z,29.80
2022-10-13T22:06:15.888Z,27.93
2022-10-13T22:08:46.378Z,28.53
2022-10-13T22:11:13.574Z,29.27
2022-10-13T22:13:40.735Z,31.13
2022-10-13T22:16:10.855Z,30.77
2022-10-13T22:18:37.363Z,29.20
2022-10-13T22:21:07.071Z,29.33
2022-10-13T22:23:33.593Z,31.67
2022-10-13T22:26:00.510Z,34.40
2022-10-13T22:28:27.123Z,31.33
2022-10-13T22:30:53.737Z,33.63
2022-10-13T22:33:20.442Z,30.00
2022-10-13T22:35:47.075Z,29.13
2022-10-13T22:38:14.314Z,33.37
2022-10-13T22:40:41.690Z,30.77
2022-10-13T22:43:08.695Z,29.87
2022-10-13T22:45:35.286Z,29.83
2022-10-13T22:48:02.268Z,28.40
2022-10-13T22:50:29.352Z,30.60
2022-10-13T22:52:55.869Z,28.70
2022-10-13T22:55:22.576Z,28.47
2022-10-13T22:57:49.064Z,29.03
2022-10-13T23:00:16.379Z,29.93
2022-10-13T23:02:42.889Z,30.13
2022-10-13T23:05:09.560Z,30.03
2022-10-13T23:07:36.071Z,30.50
2022-10-13T23:10:02.617Z,30.50
2022-10-13T23:12:29.107Z,33.73
2022-10-13T23:14:55.592Z,33.73
2022-10-13T23:17:22.474Z,31.20
2022-10-13T23:19:49.254Z,30.20
2022-10-13T23:22:15.775Z,30.87
2022-10-13T23:24:42.250Z,31.13
2022-10-13T23:27:08.753Z,31.97
2022-10-13T23:29:35.235Z,34.40
2022-10-13T23:32:04.152Z,33.50
2022-10-13T23:34:33.243Z,34.23
2022-10-13T23:36:59.803Z,31.23
2022-10-13T23:39:26.447Z,30.80
2022-10-13T23:41:52.967Z,32.93
2022-10-13T23:44:19.439Z,34.67
2022-10-13T23:46:45.944Z,34.33
2022-10-13T23:49:13.547Z,31.80
2022-10-13T23:51:43.381Z,31.30
2022-10-13T23:54:10.304Z,34.00
2022-10-13T23:56:37.688Z,31.20
2022-10-13T23:59:04.466Z,30.93
